sensor_id;sensor_type;location;lat;lon;timestamp;temperature;humidity
19206;DHT22;59358;52.134;5.596;2023-11-21T00:02:25;7.50;99.90
19206;DHT22;59358;52.134;5.596;2023-11-21T00:04:52;7.40;99.90
19206;DHT22;59358;52.134;5.596;2023-11-21T00:07:19;7.40;99.90
19206;DHT22;59358;52.134;5.596;2023-11-21T00:09:46;7.40;99.90
19206;DHT22;59358;52.134;5.596;2023-11-21T00:12:13;7.40;99.90
19206;DHT22;59358;52.134;5.596;2023-11-21T00:14:40;7.40;99.90
19206;DHT22;59358;52.134;5.596;2023-11-21T00:17:10;7.40;99.90
19206;DHT22;59358;52.134;5.596;2023-11-21T00:19:37;7.40;99.90
19206;DHT22;59358;52.134;5.596;2023-11-21T00:22:04;7.30;99.90
19206;DHT22;59358;52.134;5.596;2023-11-21T00:24:31;7.30;99.90
19206;DHT22;59358;52.134;5.596;2023-11-21T00:26:58;7.30;99.90
19206;DHT22;59358;52.134;5.596;2023-11-21T00:29:25;7.30;99.90
19206;DHT22;59358;52.134;5.596;2023-11-21T00:31:52;7.30;99.90
19206;DHT22;59358;52.134;5.596;2023-11-21T00:34:20;7.20;99.90
19206;DHT22;59358;52.134;5.596;2023-11-21T00:36:47;7.20;99.90
19206;DHT22;59358;52.134;5.596;2023-11-21T00:39:13;7.20;99.90
19206;DHT22;59358;52.134;5.596;2023-11-21T00:41:41;7.30;99.90
19206;DHT22;59358;52.134;5.596;2023-11-21T00:44:07;7.30;99.90
19206;DHT22;59358;52.134;5.596;2023-11-21T00:46:34;7.30;99.90
19206;DHT22;59358;52.134;5.596;2023-11-21T00:49:01;7.20;99.90
19206;DHT22;59358;52.134;5.596;2023-11-21T00:51:31;7.30;99.90
19206;DHT22;59358;52.134;5.596;2023-11-21T00:53:58;7.30;99.90
19206;DHT22;59358;52.134;5.596;2023-11-21T00:56:25;7.30;99.90
19206;DHT22;59358;52.134;5.596;2023-11-21T00:58:51;7.30;99.90
19206;DHT22;59358;52.134;5.596;2023-11-21T01:01:19;7.30;99.90
19206;DHT22;59358;52.134;5.596;2023-11-21T01:03:47;7.40;99.90
19206;DHT22;59358;52.134;5.596;2023-11-21T01:06:14;7.40;99.90
19206;DHT22;59358;52.134;5.596;2023-11-21T01:08:43;7.50;99.90
19206;DHT22;59358;52.134;5.596;2023-11-21T01:11:10;7.50;99.90
19206;DHT22;59358;52.134;5.596;2023-11-21T01:13:38;7.50;99.90
19206;DHT22;59358;52.134;5.596;2023-11-21T01:16:05;7.60;99.90
19206;DHT22;59358;52.134;5.596;2023-11-21T01:18:32;7.60;99.90
19206;DHT22;59358;52.134;5.596;2023-11-21T01:21:00;7.60;99.90
19206;DHT22;59358;52.134;5.596;2023-11-21T01:23:27;7.60;99.90
19206;DHT22;59358;52.134;5.596;2023-11-21T01:25:56;7.70;99.90
19206;DHT22;59358;52.134;5.596;2023-11-21T01:28:23;7.70;99.90
19206;DHT22;59358;52.134;5.596;2023-11-21T01:30:50;7.80;99.90
19206;DHT22;59358;52.134;5.596;2023-11-21T01:33:16;7.80;99.90
19206;DHT22;59358;52.134;5.596;2023-11-21T01:35:44;7.80;99.90
19206;DHT22;59358;52.134;5.596;2023-11-21T01:38:12;7.80;99.90
19206;DHT22;59358;52.134;5.596;2023-11-21T01:40:39;8.00;99.90
19206;DHT22;59358;52.134;5.596;2023-11-21T01:43:07;7.90;99.90
19206;DHT22;59358;52.134;5.596;2023-11-21T01:45:35;7.90;99.90
19206;DHT22;59358;52.134;5.596;2023-11-21T01:48:02;7.90;99.90
19206;DHT22;59358;52.134;5.596;2023-11-21T01:50:32;8.00;99.90
19206;DHT22;59358;52.134;5.596;2023-11-21T01:53:00;8.00;99.90
19206;DHT22;59358;52.134;5.596;2023-11-21T01:55:27;8.00;99.90
19206;DHT22;59358;52.134;5.596;2023-11-21T01:57:55;8.00;99.90
19206;DHT22;59358;52.134;5.596;2023-11-21T02:00:24;8.00;99.90
19206;DHT22;59358;52.134;5.596;2023-11-21T02:02:53;8.00;99.90
19206;DHT22;59358;52.134;5.596;2023-11-21T02:05:20;8.00;99.90
19206;DHT22;59358;52.134;5.596;2023-11-21T02:07:47;8.10;99.90
19206;DHT22;59358;52.134;5.596;2023-11-21T02:10:15;8.00;99.90
19206;DHT22;59358;52.134;5.596;2023-11-21T02:12:42;8.10;99.90
19206;DHT22;59358;52.134;5.596;2023-11-21T02:15:10;8.10;99.90
19206;DHT22;59358;52.134;5.596;2023-11-21T02:17:42;8.10;99.90
19206;DHT22;59358;52.134;5.596;2023-11-21T02:20:10;8.10;99.90
19206;DHT22;59358;52.134;5.596;2023-11-21T02:22:41;8.10;99.90
19206;DHT22;59358;52.134;5.596;2023-11-21T02:25:10;8.10;99.90
19206;DHT22;59358;52.134;5.596;2023-11-21T02:27:36;8.10;99.90
19206;DHT22;59358;52.134;5.596;2023-11-21T02:30:04;8.10;99.90
19206;DHT22;59358;52.134;5.596;2023-11-21T02:32:33;8.10;99.90
19206;DHT22;59358;52.134;5.596;2023-11-21T02:34:59;8.20;99.90
19206;DHT22;59358;52.134;5.596;2023-11-21T02:37:28;8.20;99.90
19206;DHT22;59358;52.134;5.596;2023-11-21T02:39:55;8.20;99.90
19206;DHT22;59358;52.134;5.596;2023-11-21T02:42:23;8.10;99.90
19206;DHT22;59358;52.134;5.596;2023-11-21T02:44:50;8.10;99.90
19206;DHT22;59358;52.134;5.596;2023-11-21T02:47:17;8.10;99.90
19206;DHT22;59358;52.134;5.596;2023-11-21T02:49:44;8.10;99.90
19206;DHT22;59358;52.134;5.596;2023-11-21T02:52:11;8.00;99.90
19206;DHT22;59358;52.134;5.596;2023-11-21T02:54:38;8.00;99.90
19206;DHT22;59358;52.134;5.596;2023-11-21T02:57:05;8.10;99.90
19206;DHT22;59358;52.134;5.596;2023-11-21T02:59:34;8.10;99.90
19206;DHT22;59358;52.134;5.596;2023-11-21T03:02:01;8.10;99.90
19206;DHT22;59358;52.134;5.596;2023-11-21T03:04:29;8.10;99.90
19206;DHT22;59358;52.134;5.596;2023-11-21T03:06:58;8.20;99.90
19206;DHT22;59358;52.134;5.596;2023-11-21T03:09:24;8.20;99.90
19206;DHT22;59358;52.134;5.596;2023-11-21T03:11:52;8.20;99.90
19206;DHT22;59358;52.134;5.596;2023-11-21T03:14:19;8.20;99.90
19206;DHT22;59358;52.134;5.596;2023-11-21T03:16:47;8.20;99.90
19206;DHT22;59358;52.134;5.596;2023-11-21T03:19:14;8.30;99.90
19206;DHT22;59358;52.134;5.596;2023-11-21T03:21:41;8.30;99.90
19206;DHT22;59358;52.134;5.596;2023-11-21T03:24:08;8.30;99.90
19206;DHT22;59358;52.134;5.596;2023-11-21T03:26:35;8.40;99.90
19206;DHT22;59358;52.134;5.596;2023-11-21T03:29:03;8.40;99.90
19206;DHT22;59358;52.134;5.596;2023-11-21T03:31:30;8.50;99.90
19206;DHT22;59358;52.134;5.596;2023-11-21T03:33:59;8.50;99.90
19206;DHT22;59358;52.134;5.596;2023-11-21T03:36:25;8.50;99.90
19206;DHT22;59358;52.134;5.596;2023-11-21T03:38:52;8.60;99.90
19206;DHT22;59358;52.134;5.596;2023-11-21T03:41:20;8.50;99.90
19206;DHT22;59358;52.134;5.596;2023-11-21T03:43:47;8.40;99.90
19206;DHT22;59358;52.134;5.596;2023-11-21T03:46:13;8.40;99.90
19206;DHT22;59358;52.134;5.596;2023-11-21T03:48:40;8.30;99.90
19206;DHT22;59358;52.134;5.596;2023-11-21T03:51:08;8.30;99.90
19206;DHT22;59358;52.134;5.596;2023-11-21T03:53:35;8.40;99.90
19206;DHT22;59358;52.134;5.596;2023-11-21T03:56:02;8.30;99.90
19206;DHT22;59358;52.134;5.596;2023-11-21T03:58:29;8.30;99.90
19206;DHT22;59358;52.134;5.596;2023-11-21T04:00:56;8.30;99.90
19206;DHT22;59358;52.134;5.596;2023-11-21T04:03:23;8.40;99.90
19206;DHT22;59358;52.134;5.596;2023-11-21T04:05:50;8.40;99.90
19206;DHT22;59358;52.134;5.596;2023-11-21T04:08:18;8.50;99.90
19206;DHT22;59358;52.134;5.596;2023-11-21T04:10:45;8.40;99.90
19206;DHT22;59358;52.134;5.596;2023-11-21T04:13:11;8.50;99.90
19206;DHT22;59358;52.134;5.596;2023-11-21T04:15:38;8.50;99.90
19206;DHT22;59358;52.134;5.596;2023-11-21T04:18:05;8.60;99.90
19206;DHT22;59358;52.134;5.596;2023-11-21T04:20:32;8.60;99.90
19206;DHT22;59358;52.134;5.596;2023-11-21T04:22:58;8.70;99.90
19206;DHT22;59358;52.134;5.596;2023-11-21T04:25:26;8.70;99.90
19206;DHT22;59358;52.134;5.596;2023-11-21T04:27:54;8.70;99.90
19206;DHT22;59358;52.134;5.596;2023-11-21T04:30:21;8.80;99.90
19206;DHT22;59358;52.134;5.596;2023-11-21T04:32:48;8.80;99.90
19206;DHT22;59358;52.134;5.596;2023-11-21T04:35:16;8.80;99.90
19206;DHT22;59358;52.134;5.596;2023-11-21T04:37:43;8.90;99.90
19206;DHT22;59358;52.134;5.596;2023-11-21T04:40:11;8.90;99.90
19206;DHT22;59358;52.134;5.596;2023-11-21T04:42:39;8.80;99.90
19206;DHT22;59358;52.134;5.596;2023-11-21T04:45:07;8.80;99.90
19206;DHT22;59358;52.134;5.596;2023-11-21T04:47:37;8.80;99.90
19206;DHT22;59358;52.134;5.596;2023-11-21T04:50:04;8.80;99.90
19206;DHT22;59358;52.134;5.596;2023-11-21T04:52:32;8.80;99.90
19206;DHT22;59358;52.134;5.596;2023-11-21T04:54:59;8.90;99.90
19206;DHT22;59358;52.134;5.596;2023-11-21T04:57:27;8.90;99.90
19206;DHT22;59358;52.134;5.596;2023-11-21T04:59:55;8.90;99.90
19206;DHT22;59358;52.134;5.596;2023-11-21T05:02:22;8.90;99.90
19206;DHT22;59358;52.134;5.596;2023-11-21T05:04:48;8.80;99.90
19206;DHT22;59358;52.134;5.596;2023-11-21T05:07:15;8.90;99.90
19206;DHT22;59358;52.134;5.596;2023-11-21T05:09:42;9.00;99.90
19206;DHT22;59358;52.134;5.596;2023-11-21T05:12:11;9.00;99.90
19206;DHT22;59358;52.134;5.596;2023-11-21T05:14:38;9.00;99.90
19206;DHT22;59358;52.134;5.596;2023-11-21T05:17:06;9.00;99.90
19206;DHT22;59358;52.134;5.596;2023-11-21T05:19:34;9.10;99.90
19206;DHT22;59358;52.134;5.596;2023-11-21T05:22:01;9.20;99.90
19206;DHT22;59358;52.134;5.596;2023-11-21T05:24:30;9.20;99.90
19206;DHT22;59358;52.134;5.596;2023-11-21T05:26:57;9.20;99.90
19206;DHT22;59358;52.134;5.596;2023-11-21T05:29:23;9.10;99.90
19206;DHT22;59358;52.134;5.596;2023-11-21T05:31:51;9.10;99.90
19206;DHT22;59358;52.134;5.596;2023-11-21T05:34:19;9.10;99.90
19206;DHT22;59358;52.134;5.596;2023-11-21T05:36:49;9.20;99.90
19206;DHT22;59358;52.134;5.596;2023-11-21T05:39:16;9.20;99.90
19206;DHT22;59358;52.134;5.596;2023-11-21T05:41:44;9.20;99.90
19206;DHT22;59358;52.134;5.596;2023-11-21T05:44:11;9.30;99.90
19206;DHT22;59358;52.134;5.596;2023-11-21T05:46:40;9.30;99.90
19206;DHT22;59358;52.134;5.596;2023-11-21T05:49:08;9.40;99.90
19206;DHT22;59358;52.134;5.596;2023-11-21T05:51:36;9.50;99.90
19206;DHT22;59358;52.134;5.596;2023-11-21T05:54:04;9.30;99.90
19206;DHT22;59358;52.134;5.596;2023-11-21T05:56:30;9.30;99.90
19206;DHT22;59358;52.134;5.596;2023-11-21T05:58:57;9.30;99.90
19206;DHT22;59358;52.134;5.596;2023-11-21T06:01:24;9.30;99.90
19206;DHT22;59358;52.134;5.596;2023-11-21T06:03:53;9.30;99.90
19206;DHT22;59358;52.134;5.596;2023-11-21T06:06:20;9.30;99.90
19206;DHT22;59358;52.134;5.596;2023-11-21T06:08:49;9.40;99.90
19206;DHT22;59358;52.134;5.596;2023-11-21T06:11:15;9.40;99.90
19206;DHT22;59358;52.134;5.596;2023-11-21T06:13:43;9.30;99.90
19206;DHT22;59358;52.134;5.596;2023-11-21T06:16:10;9.30;99.90
19206;DHT22;59358;52.134;5.596;2023-11-21T06:18:41;9.20;99.90
19206;DHT22;59358;52.134;5.596;2023-11-21T06:21:09;9.20;99.90
19206;DHT22;59358;52.134;5.596;2023-11-21T06:23:36;9.20;99.90
19206;DHT22;59358;52.134;5.596;2023-11-21T06:26:05;9.20;99.90
19206;DHT22;59358;52.134;5.596;2023-11-21T06:28:31;9.30;99.90
19206;DHT22;59358;52.134;5.596;2023-11-21T06:30:58;9.30;99.90
19206;DHT22;59358;52.134;5.596;2023-11-21T06:33:30;9.30;99.90
19206;DHT22;59358;52.134;5.596;2023-11-21T06:35:57;9.40;99.90
19206;DHT22;59358;52.134;5.596;2023-11-21T06:38:24;9.40;99.90
19206;DHT22;59358;52.134;5.596;2023-11-21T06:40:55;9.50;99.90
19206;DHT22;59358;52.134;5.596;2023-11-21T06:43:23;9.60;99.90
19206;DHT22;59358;52.134;5.596;2023-11-21T06:45:51;9.60;99.90
19206;DHT22;59358;52.134;5.596;2023-11-21T06:48:18;9.60;99.90
19206;DHT22;59358;52.134;5.596;2023-11-21T06:50:45;9.60;99.90
19206;DHT22;59358;52.134;5.596;2023-11-21T06:53:12;9.70;99.90
19206;DHT22;59358;52.134;5.596;2023-11-21T06:55:39;9.60;99.90
19206;DHT22;59358;52.134;5.596;2023-11-21T06:58:06;9.60;99.90
19206;DHT22;59358;52.134;5.596;2023-11-21T07:00:34;9.60;99.90
19206;DHT22;59358;52.134;5.596;2023-11-21T07:03:01;9.60;99.90
19206;DHT22;59358;52.134;5.596;2023-11-21T07:05:27;9.50;99.90
19206;DHT22;59358;52.134;5.596;2023-11-21T07:07:54;9.60;99.90
19206;DHT22;59358;52.134;5.596;2023-11-21T07:10:21;9.70;99.90
19206;DHT22;59358;52.134;5.596;2023-11-21T07:12:47;9.70;99.90
19206;DHT22;59358;52.134;5.596;2023-11-21T07:15:14;9.70;99.90
19206;DHT22;59358;52.134;5.596;2023-11-21T07:17:43;9.70;99.90
19206;DHT22;59358;52.134;5.596;2023-11-21T07:20:11;9.80;99.90
19206;DHT22;59358;52.134;5.596;2023-11-21T07:22:37;9.80;99.90
19206;DHT22;59358;52.134;5.596;2023-11-21T07:25:05;9.80;99.90
19206;DHT22;59358;52.134;5.596;2023-11-21T07:27:32;9.80;99.90
19206;DHT22;59358;52.134;5.596;2023-11-21T07:30:01;9.80;99.90
19206;DHT22;59358;52.134;5.596;2023-11-21T07:32:30;9.70;99.90
19206;DHT22;59358;52.134;5.596;2023-11-21T07:34:58;9.80;99.90
19206;DHT22;59358;52.134;5.596;2023-11-21T07:37:26;9.90;99.90
19206;DHT22;59358;52.134;5.596;2023-11-21T07:39:55;9.80;99.90
19206;DHT22;59358;52.134;5.596;2023-11-21T07:42:23;9.80;99.90
19206;DHT22;59358;52.134;5.596;2023-11-21T07:44:52;9.90;99.90
19206;DHT22;59358;52.134;5.596;2023-11-21T07:47:19;9.90;99.90
19206;DHT22;59358;52.134;5.596;2023-11-21T07:49:46;10.00;99.90
19206;DHT22;59358;52.134;5.596;2023-11-21T07:52:14;10.10;99.90
19206;DHT22;59358;52.134;5.596;2023-11-21T07:54:42;10.10;99.90
19206;DHT22;59358;52.134;5.596;2023-11-21T07:57:09;10.20;99.90
19206;DHT22;59358;52.134;5.596;2023-11-21T07:59:42;10.20;99.90
19206;DHT22;59358;52.134;5.596;2023-11-21T08:02:08;10.30;99.90
19206;DHT22;59358;52.134;5.596;2023-11-21T08:04:35;10.30;99.90
19206;DHT22;59358;52.134;5.596;2023-11-21T08:07:02;10.30;99.90
19206;DHT22;59358;52.134;5.596;2023-11-21T08:09:31;10.30;99.90
19206;DHT22;59358;52.134;5.596;2023-11-21T08:12:00;10.40;99.90
19206;DHT22;59358;52.134;5.596;2023-11-21T08:14:27;10.40;99.90
19206;DHT22;59358;52.134;5.596;2023-11-21T08:16:54;10.40;99.90
19206;DHT22;59358;52.134;5.596;2023-11-21T08:19:23;10.50;99.90
19206;DHT22;59358;52.134;5.596;2023-11-21T08:21:51;10.50;99.90
19206;DHT22;59358;52.134;5.596;2023-11-21T08:24:20;10.60;99.90
19206;DHT22;59358;52.134;5.596;2023-11-21T08:26:49;10.60;99.90
19206;DHT22;59358;52.134;5.596;2023-11-21T08:29:16;10.70;99.90
19206;DHT22;59358;52.134;5.596;2023-11-21T08:31:47;10.70;99.90
19206;DHT22;59358;52.134;5.596;2023-11-21T08:34:14;10.80;99.90
19206;DHT22;59358;52.134;5.596;2023-11-21T08:36:42;10.80;99.90
19206;DHT22;59358;52.134;5.596;2023-11-21T08:39:09;10.80;99.90
19206;DHT22;59358;52.134;5.596;2023-11-21T08:41:36;10.80;99.90
19206;DHT22;59358;52.134;5.596;2023-11-21T08:44:05;10.80;99.90
19206;DHT22;59358;52.134;5.596;2023-11-21T08:46:33;10.80;99.90
19206;DHT22;59358;52.134;5.596;2023-11-21T08:49:02;10.80;99.90
19206;DHT22;59358;52.134;5.596;2023-11-21T08:51:29;10.90;99.90
19206;DHT22;59358;52.134;5.596;2023-11-21T08:53:57;10.70;99.90
19206;DHT22;59358;52.134;5.596;2023-11-21T08:56:26;10.70;99.90
19206;DHT22;59358;52.134;5.596;2023-11-21T08:58:53;10.70;99.90
19206;DHT22;59358;52.134;5.596;2023-11-21T09:01:21;10.90;99.90
19206;DHT22;59358;52.134;5.596;2023-11-21T09:03:48;10.90;99.90
19206;DHT22;59358;52.134;5.596;2023-11-21T09:06:16;11.00;99.90
19206;DHT22;59358;52.134;5.596;2023-11-21T09:08:42;11.00;99.90
19206;DHT22;59358;52.134;5.596;2023-11-21T09:11:09;11.00;99.90
19206;DHT22;59358;52.134;5.596;2023-11-21T09:13:36;11.00;99.90
19206;DHT22;59358;52.134;5.596;2023-11-21T09:16:03;11.10;99.90
19206;DHT22;59358;52.134;5.596;2023-11-21T09:18:32;11.20;99.90
19206;DHT22;59358;52.134;5.596;2023-11-21T09:20:59;11.40;99.90
19206;DHT22;59358;52.134;5.596;2023-11-21T09:23:26;11.50;99.90
19206;DHT22;59358;52.134;5.596;2023-11-21T09:25:53;11.60;99.90
19206;DHT22;59358;52.134;5.596;2023-11-21T09:28:22;11.50;99.90
19206;DHT22;59358;52.134;5.596;2023-11-21T09:30:49;11.60;99.90
19206;DHT22;59358;52.134;5.596;2023-11-21T09:33:16;11.60;99.90
19206;DHT22;59358;52.134;5.596;2023-11-21T09:35:44;11.50;99.90
19206;DHT22;59358;52.134;5.596;2023-11-21T09:38:11;11.60;99.90
19206;DHT22;59358;52.134;5.596;2023-11-21T09:40:38;11.60;99.90
19206;DHT22;59358;52.134;5.596;2023-11-21T09:43:07;11.60;99.90
19206;DHT22;59358;52.134;5.596;2023-11-21T09:45:35;11.50;99.90
19206;DHT22;59358;52.134;5.596;2023-11-21T09:48:05;11.60;99.90
19206;DHT22;59358;52.134;5.596;2023-11-21T09:50:32;11.50;99.90
19206;DHT22;59358;52.134;5.596;2023-11-21T09:53:09;11.50;99.90
19206;DHT22;59358;52.134;5.596;2023-11-21T09:55:42;11.40;99.90
19206;DHT22;59358;52.134;5.596;2023-11-21T09:58:11;11.40;99.90
19206;DHT22;59358;52.134;5.596;2023-11-21T10:00:41;11.30;99.90
19206;DHT22;59358;52.134;5.596;2023-11-21T10:03:08;11.20;99.90
19206;DHT22;59358;52.134;5.596;2023-11-21T10:05:36;11.10;99.90
19206;DHT22;59358;52.134;5.596;2023-11-21T10:08:08;11.10;99.90
19206;DHT22;59358;52.134;5.596;2023-11-21T10:10:36;11.10;99.90
19206;DHT22;59358;52.134;5.596;2023-11-21T10:13:05;11.10;99.90
19206;DHT22;59358;52.134;5.596;2023-11-21T10:15:33;11.10;99.90
19206;DHT22;59358;52.134;5.596;2023-11-21T10:18:04;11.10;99.90
19206;DHT22;59358;52.134;5.596;2023-11-21T10:20:32;11.00;99.90
19206;DHT22;59358;52.134;5.596;2023-11-21T10:23:00;11.00;99.90
19206;DHT22;59358;52.134;5.596;2023-11-21T10:25:30;10.90;99.90
19206;DHT22;59358;52.134;5.596;2023-11-21T10:27:58;10.90;99.90
19206;DHT22;59358;52.134;5.596;2023-11-21T10:30:32;11.00;99.90
19206;DHT22;59358;52.134;5.596;2023-11-21T10:33:03;11.10;99.90
19206;DHT22;59358;52.134;5.596;2023-11-21T10:35:42;11.20;99.90
19206;DHT22;59358;52.134;5.596;2023-11-21T10:38:12;11.30;99.90
19206;DHT22;59358;52.134;5.596;2023-11-21T10:40:41;11.30;99.90
19206;DHT22;59358;52.134;5.596;2023-11-21T10:43:08;11.30;99.90
19206;DHT22;59358;52.134;5.596;2023-11-21T10:45:36;11.30;99.90
19206;DHT22;59358;52.134;5.596;2023-11-21T10:48:05;11.30;99.90
19206;DHT22;59358;52.134;5.596;2023-11-21T10:50:33;11.30;99.90
19206;DHT22;59358;52.134;5.596;2023-11-21T10:53:02;11.20;99.90
19206;DHT22;59358;52.134;5.596;2023-11-21T10:55:29;11.20;99.90
19206;DHT22;59358;52.134;5.596;2023-11-21T10:58:01;11.20;99.90
19206;DHT22;59358;52.134;5.596;2023-11-21T11:00:29;11.10;99.90
19206;DHT22;59358;52.134;5.596;2023-11-21T11:02:56;11.10;99.90
19206;DHT22;59358;52.134;5.596;2023-11-21T11:05:28;11.00;99.90
19206;DHT22;59358;52.134;5.596;2023-11-21T11:07:59;11.00;99.90
19206;DHT22;59358;52.134;5.596;2023-11-21T11:10:27;10.90;99.90
19206;DHT22;59358;52.134;5.596;2023-11-21T11:12:55;10.90;99.90
19206;DHT22;59358;52.134;5.596;2023-11-21T11:15:24;11.00;99.90
19206;DHT22;59358;52.134;5.596;2023-11-21T11:17:52;11.10;99.90
19206;DHT22;59358;52.134;5.596;2023-11-21T11:20:23;11.00;99.90
19206;DHT22;59358;52.134;5.596;2023-11-21T11:23:04;11.00;99.90
19206;DHT22;59358;52.134;5.596;2023-11-21T11:25:46;11.10;99.90
19206;DHT22;59358;52.134;5.596;2023-11-21T11:28:20;11.10;99.90
19206;DHT22;59358;52.134;5.596;2023-11-21T11:31:00;11.20;99.90
19206;DHT22;59358;52.134;5.596;2023-11-21T11:33:36;11.30;99.90
19206;DHT22;59358;52.134;5.596;2023-11-21T11:36:09;11.30;99.90
19206;DHT22;59358;52.134;5.596;2023-11-21T11:38:36;11.10;99.90
19206;DHT22;59358;52.134;5.596;2023-11-21T11:41:05;11.20;99.90
19206;DHT22;59358;52.134;5.596;2023-11-21T11:43:32;11.20;99.90
19206;DHT22;59358;52.134;5.596;2023-11-21T11:46:06;11.10;99.90
19206;DHT22;59358;52.134;5.596;2023-11-21T11:48:37;11.20;99.90
19206;DHT22;59358;52.134;5.596;2023-11-21T11:51:06;11.20;99.90
19206;DHT22;59358;52.134;5.596;2023-11-21T11:53:38;11.10;99.90
19206;DHT22;59358;52.134;5.596;2023-11-21T11:56:23;11.10;99.90
19206;DHT22;59358;52.134;5.596;2023-11-21T11:58:51;11.10;99.90
19206;DHT22;59358;52.134;5.596;2023-11-21T12:01:20;11.10;99.90
19206;DHT22;59358;52.134;5.596;2023-11-21T12:04:23;11.10;99.90
19206;DHT22;59358;52.134;5.596;2023-11-21T12:06:56;11.00;99.90
19206;DHT22;59358;52.134;5.596;2023-11-21T12:09:26;11.00;99.90
19206;DHT22;59358;52.134;5.596;2023-11-21T12:11:53;11.00;99.90
19206;DHT22;59358;52.134;5.596;2023-11-21T12:14:22;11.00;99.90
19206;DHT22;59358;52.134;5.596;2023-11-21T12:16:51;11.00;99.90
19206;DHT22;59358;52.134;5.596;2023-11-21T12:19:18;11.00;99.90
19206;DHT22;59358;52.134;5.596;2023-11-21T12:21:47;11.10;99.90
19206;DHT22;59358;52.134;5.596;2023-11-21T12:24:15;11.10;99.90
19206;DHT22;59358;52.134;5.596;2023-11-21T12:26:43;11.00;99.90
19206;DHT22;59358;52.134;5.596;2023-11-21T12:29:11;10.90;99.90
19206;DHT22;59358;52.134;5.596;2023-11-21T12:31:38;10.80;99.90
19206;DHT22;59358;52.134;5.596;2023-11-21T12:34:07;10.90;99.90
19206;DHT22;59358;52.134;5.596;2023-11-21T12:36:37;11.00;99.90
19206;DHT22;59358;52.134;5.596;2023-11-21T12:39:04;11.00;99.90
19206;DHT22;59358;52.134;5.596;2023-11-21T12:41:31;11.10;99.90
19206;DHT22;59358;52.134;5.596;2023-11-21T12:43:58;11.10;99.90
19206;DHT22;59358;52.134;5.596;2023-11-21T12:46:25;11.20;99.90
19206;DHT22;59358;52.134;5.596;2023-11-21T12:48:55;11.30;99.90
19206;DHT22;59358;52.134;5.596;2023-11-21T12:51:23;11.30;99.90
19206;DHT22;59358;52.134;5.596;2023-11-21T12:53:51;11.30;99.90
19206;DHT22;59358;52.134;5.596;2023-11-21T12:56:18;11.30;99.90
19206;DHT22;59358;52.134;5.596;2023-11-21T12:58:48;11.30;99.90
19206;DHT22;59358;52.134;5.596;2023-11-21T13:01:17;11.20;99.90
19206;DHT22;59358;52.134;5.596;2023-11-21T13:03:46;11.10;99.90
19206;DHT22;59358;52.134;5.596;2023-11-21T13:06:17;11.10;99.90
19206;DHT22;59358;52.134;5.596;2023-11-21T13:08:46;11.10;99.90
19206;DHT22;59358;52.134;5.596;2023-11-21T13:11:13;11.10;99.90
19206;DHT22;59358;52.134;5.596;2023-11-21T13:13:41;11.10;99.90
19206;DHT22;59358;52.134;5.596;2023-11-21T13:16:09;11.10;99.90
19206;DHT22;59358;52.134;5.596;2023-11-21T13:18:36;11.10;99.90
19206;DHT22;59358;52.134;5.596;2023-11-21T13:21:05;11.10;99.90
19206;DHT22;59358;52.134;5.596;2023-11-21T13:23:36;11.10;99.90
19206;DHT22;59358;52.134;5.596;2023-11-21T13:26:04;11.00;99.90
19206;DHT22;59358;52.134;5.596;2023-11-21T13:28:32;11.10;99.90
19206;DHT22;59358;52.134;5.596;2023-11-21T13:33:29;11.10;99.90
19206;DHT22;59358;52.134;5.596;2023-11-21T13:35:58;11.00;99.90
19206;DHT22;59358;52.134;5.596;2023-11-21T13:38:27;10.90;99.90
19206;DHT22;59358;52.134;5.596;2023-11-21T13:40:58;10.90;99.90
19206;DHT22;59358;52.134;5.596;2023-11-21T13:43:29;10.90;99.90
19206;DHT22;59358;52.134;5.596;2023-11-21T13:45:56;10.90;99.90
19206;DHT22;59358;52.134;5.596;2023-11-21T13:48:26;10.80;99.90
19206;DHT22;59358;52.134;5.596;2023-11-21T13:51:00;10.70;99.90
19206;DHT22;59358;52.134;5.596;2023-11-21T13:53:36;10.80;99.90
19206;DHT22;59358;52.134;5.596;2023-11-21T13:56:04;10.70;99.90
19206;DHT22;59358;52.134;5.596;2023-11-21T13:58:33;10.70;99.90
19206;DHT22;59358;52.134;5.596;2023-11-21T14:01:10;10.80;99.90
19206;DHT22;59358;52.134;5.596;2023-11-21T14:03:50;10.70;99.90
19206;DHT22;59358;52.134;5.596;2023-11-21T14:06:22;10.60;99.90
19206;DHT22;59358;52.134;5.596;2023-11-21T14:08:54;10.50;99.90
19206;DHT22;59358;52.134;5.596;2023-11-21T14:11:22;10.50;99.90
19206;DHT22;59358;52.134;5.596;2023-11-21T14:13:50;10.40;99.90
19206;DHT22;59358;52.134;5.596;2023-11-21T14:16:17;10.40;99.90
19206;DHT22;59358;52.134;5.596;2023-11-21T14:18:44;10.40;99.90
19206;DHT22;59358;52.134;5.596;2023-11-21T14:21:21;10.40;99.90
19206;DHT22;59358;52.134;5.596;2023-11-21T14:23:48;10.30;99.90
19206;DHT22;59358;52.134;5.596;2023-11-21T14:26:14;10.30;99.90
19206;DHT22;59358;52.134;5.596;2023-11-21T14:28:42;10.20;99.90
19206;DHT22;59358;52.134;5.596;2023-11-21T14:31:11;10.20;99.90
19206;DHT22;59358;52.134;5.596;2023-11-21T14:33:41;10.20;99.90
19206;DHT22;59358;52.134;5.596;2023-11-21T14:36:08;10.20;99.90
19206;DHT22;59358;52.134;5.596;2023-11-21T14:38:35;10.20;99.90
19206;DHT22;59358;52.134;5.596;2023-11-21T14:41:02;10.20;99.90
19206;DHT22;59358;52.134;5.596;2023-11-21T14:43:29;10.20;99.90
19206;DHT22;59358;52.134;5.596;2023-11-21T14:45:59;10.20;99.90
19206;DHT22;59358;52.134;5.596;2023-11-21T14:48:28;10.20;99.90
19206;DHT22;59358;52.134;5.596;2023-11-21T14:51:08;10.10;99.90
19206;DHT22;59358;52.134;5.596;2023-11-21T14:53:53;10.00;99.90
19206;DHT22;59358;52.134;5.596;2023-11-21T14:56:20;9.90;99.90
19206;DHT22;59358;52.134;5.596;2023-11-21T14:58:52;9.90;99.90
19206;DHT22;59358;52.134;5.596;2023-11-21T15:01:20;9.80;99.90
19206;DHT22;59358;52.134;5.596;2023-11-21T15:03:57;9.70;99.90
19206;DHT22;59358;52.134;5.596;2023-11-21T15:06:24;9.60;99.90
19206;DHT22;59358;52.134;5.596;2023-11-21T15:08:56;9.60;99.90
19206;DHT22;59358;52.134;5.596;2023-11-21T15:11:54;9.50;99.90
19206;DHT22;59358;52.134;5.596;2023-11-21T15:14:25;9.50;99.90
19206;DHT22;59358;52.134;5.596;2023-11-21T15:16:57;9.50;99.90
19206;DHT22;59358;52.134;5.596;2023-11-21T15:19:26;9.40;99.90
19206;DHT22;59358;52.134;5.596;2023-11-21T15:21:54;9.40;99.90
19206;DHT22;59358;52.134;5.596;2023-11-21T15:24:21;9.40;99.90
19206;DHT22;59358;52.134;5.596;2023-11-21T15:26:48;9.30;99.90
19206;DHT22;59358;52.134;5.596;2023-11-21T15:29:15;9.40;99.90
19206;DHT22;59358;52.134;5.596;2023-11-21T15:31:42;9.40;99.90
19206;DHT22;59358;52.134;5.596;2023-11-21T15:34:13;9.40;99.90
19206;DHT22;59358;52.134;5.596;2023-11-21T15:36:42;9.20;99.90
19206;DHT22;59358;52.134;5.596;2023-11-21T15:39:09;9.20;99.90
19206;DHT22;59358;52.134;5.596;2023-11-21T15:41:37;9.10;99.90
19206;DHT22;59358;52.134;5.596;2023-11-21T15:44:05;9.10;99.90
19206;DHT22;59358;52.134;5.596;2023-11-21T15:46:34;9.00;99.90
19206;DHT22;59358;52.134;5.596;2023-11-21T15:49:01;8.90;99.90
19206;DHT22;59358;52.134;5.596;2023-11-21T15:51:29;8.90;99.90